createdAt,value
2018-09-11T00:03:15.734Z,17.38
2018-09-11T00:08:19.349Z,17.37
2018-09-11T00:13:22.975Z,17.28
2018-09-11T00:18:33.401Z,17.25
2018-09-11T00:23:36.979Z,17.16
2018-09-11T00:28:40.584Z,17.23
2018-09-11T00:33:44.225Z,17.26
2018-09-11T00:38:48.062Z,17.22
2018-09-11T00:43:51.897Z,17.27
2018-09-11T00:48:55.443Z,17.22
2018-09-11T00:54:02.360Z,17.18
2018-09-11T00:59:06.278Z,16.99
2018-09-11T01:04:09.901Z,16.87
2018-09-11T01:09:13.651Z,16.82
2018-09-11T01:14:17.281Z,16.81
2018-09-11T01:19:21.086Z,16.78
2018-09-11T01:24:24.765Z,16.77
2018-09-11T01:29:28.751Z,16.73
2018-09-11T01:34:32.519Z,16.62
2018-09-11T01:39:36.172Z,16.68
2018-09-11T01:44:39.768Z,16.67
2018-09-11T01:49:43.626Z,16.61
2018-09-11T01:54:47.177Z,16.48
2018-09-11T01:59:50.960Z,16.36
2018-09-11T02:04:55.084Z,16.19
2018-09-11T02:09:58.901Z,16.12
2018-09-11T02:15:02.576Z,15.93
2018-09-11T02:20:06.252Z,15.84
2018-09-11T02:25:10.013Z,15.76
2018-09-11T02:30:15.313Z,15.68
2018-09-11T02:35:18.871Z,15.60
2018-09-11T02:40:22.469Z,15.59
2018-09-11T02:45:26.278Z,15.67
2018-09-11T02:50:29.873Z,15.72
2018-09-11T02:55:33.427Z,15.73
2018-09-11T03:00:37.220Z,15.79
2018-09-11T03:05:40.829Z,15.89
2018-09-11T03:10:44.372Z,15.89
2018-09-11T03:15:47.906Z,16.05
2018-09-11T03:20:51.805Z,16.12
2018-09-11T03:25:55.401Z,16.21
2018-09-11T03:30:58.933Z,16.32
2018-09-11T03:36:02.533Z,16.43
2018-09-11T03:41:06.175Z,16.57
2018-09-11T03:46:09.830Z,16.56
2018-09-11T03:51:13.532Z,16.34
2018-09-11T03:56:17.077Z,16.22
2018-09-11T04:01:20.867Z,16.14
2018-09-11T04:06:24.366Z,16.02
2018-09-11T04:11:27.983Z,15.98
2018-09-11T04:16:31.500Z,15.87
2018-09-11T04:21:35.089Z,15.65
2018-09-11T04:26:38.669Z,15.45
2018-09-11T04:31:42.269Z,15.36
2018-09-11T04:36:45.779Z,15.28
2018-09-11T04:41:49.336Z,15.36
2018-09-11T04:46:52.999Z,15.55
2018-09-11T04:51:56.618Z,15.71
2018-09-11T04:57:00.242Z,15.93
2018-09-11T05:02:03.987Z,15.91
2018-09-11T05:07:08.129Z,16.10
2018-09-11T05:12:12.036Z,16.20
2018-09-11T05:17:15.626Z,16.07
2018-09-11T05:22:19.136Z,15.99
2018-09-11T05:27:22.754Z,16.04
2018-09-11T05:32:26.332Z,16.20
2018-09-11T05:37:29.893Z,16.28
2018-09-11T05:42:33.500Z,16.34
2018-09-11T05:47:37.210Z,16.47
2018-09-11T05:52:41.257Z,16.51
2018-09-11T05:57:44.824Z,16.63
2018-09-11T06:02:48.894Z,16.74
2018-09-11T06:07:52.449Z,16.73
2018-09-11T06:12:56.194Z,16.71
2018-09-11T06:17:59.819Z,16.87
2018-09-11T06:23:03.709Z,17.00
2018-09-11T06:28:07.395Z,17.08
2018-09-11T06:33:11.181Z,17.36
2018-09-11T06:38:15.596Z,17.48
2018-09-11T06:43:19.249Z,17.63
2018-09-11T06:48:22.869Z,17.73
2018-09-11T06:53:28.874Z,17.68
2018-09-11T06:58:32.368Z,17.87
2018-09-11T07:03:36.002Z,17.91
2018-09-11T07:08:39.775Z,17.92
2018-09-11T07:13:43.350Z,17.99
2018-09-11T07:18:47.126Z,17.98
2018-09-11T07:23:50.762Z,18.07
2018-09-11T07:28:54.339Z,18.17
2018-09-11T07:33:57.921Z,18.27
2018-09-11T07:39:01.495Z,18.61
2018-09-11T07:44:05.108Z,18.78
2018-09-11T07:49:08.782Z,18.82
2018-09-11T07:54:12.421Z,18.92
2018-09-11T07:59:15.929Z,19.22
2018-09-11T08:04:19.714Z,19.25
2018-09-11T08:09:23.263Z,19.27
2018-09-11T08:14:28.706Z,19.31
2018-09-11T08:19:32.348Z,19.52
2018-09-11T08:24:35.911Z,19.88
2018-09-11T08:29:39.477Z,20.12
2018-09-11T08:34:43.037Z,20.06
2018-09-11T08:39:46.610Z,20.31
2018-09-11T08:44:50.183Z,20.34
2018-09-11T08:49:53.690Z,20.35
2018-09-11T08:54:57.597Z,20.45
2018-09-11T09:00:01.199Z,20.33
2018-09-11T09:05:04.770Z,20.39
2018-09-11T09:10:08.342Z,20.47
2018-09-11T09:15:12.174Z,20.77
2018-09-11T09:20:15.714Z,21.10
2018-09-11T09:25:19.345Z,21.26
2018-09-11T09:30:31.066Z,21.24
2018-09-11T09:35:34.747Z,21.25
2018-09-11T09:40:38.323Z,21.40
2018-09-11T09:45:41.875Z,21.49
2018-09-11T09:50:45.442Z,21.49
2018-09-11T09:55:48.984Z,21.69
2018-09-11T10:01:01.686Z,22.06
2018-09-11T10:06:05.443Z,22.13
2018-09-11T10:11:09.083Z,22.02
2018-09-11T10:16:12.962Z,22.08
2018-09-11T10:21:16.556Z,22.22
2018-09-11T10:26:20.393Z,22.33
2018-09-11T10:31:24.286Z,22.43
2018-09-11T10:36:27.913Z,22.49
2018-09-11T10:41:31.604Z,22.45
2018-09-11T10:46:35.256Z,22.45
2018-09-11T10:51:39.230Z,22.61
2018-09-11T10:56:43.021Z,22.84
2018-09-11T11:01:46.866Z,22.78
2018-09-11T11:06:50.830Z,23.05
2018-09-11T11:11:54.537Z,23.23
2018-09-11T11:16:58.264Z,23.20
2018-09-11T11:22:01.990Z,23.35
2018-09-11T11:27:05.718Z,23.35
2018-09-11T11:32:09.434Z,23.35
2018-09-11T11:37:13.358Z,23.75
2018-09-11T11:42:17.035Z,23.92
2018-09-11T11:47:21.234Z,24.08
2018-09-11T11:52:24.829Z,23.85
2018-09-11T11:57:28.517Z,24.05
2018-09-11T12:02:32.283Z,24.46
2018-09-11T12:07:35.873Z,24.38
2018-09-11T12:12:39.599Z,24.38
2018-09-11T12:17:43.338Z,24.45
2018-09-11T12:22:47.072Z,24.42
2018-09-11T12:27:50.745Z,24.54
2018-09-11T12:32:54.302Z,24.57
2018-09-11T12:37:57.867Z,24.69
2018-09-11T12:43:01.504Z,24.82
2018-09-11T12:48:05.754Z,24.86
2018-09-11T12:53:09.060Z,24.79
2018-09-11T12:58:12.661Z,24.99
2018-09-11T13:03:16.510Z,25.03
2018-09-11T13:08:20.168Z,25.08
2018-09-11T13:13:23.716Z,25.38
2018-09-11T13:18:27.317Z,25.30
2018-09-11T13:23:31.052Z,25.35
2018-09-11T13:28:34.692Z,25.23
2018-09-11T13:33:38.241Z,25.40
2018-09-11T13:38:41.808Z,25.67
2018-09-11T13:43:45.373Z,25.71
2018-09-11T13:48:48.909Z,25.81
2018-09-11T13:53:54.791Z,25.75
2018-09-11T13:59:02.357Z,25.80
2018-09-11T14:04:06.163Z,25.86
2018-09-11T14:09:12.331Z,26.00
2018-09-11T14:14:16.254Z,26.00
2018-09-11T14:19:20.001Z,26.04
2018-09-11T14:24:23.900Z,26.19
2018-09-11T14:29:32.968Z,26.10
2018-09-11T14:34:36.604Z,26.17
2018-09-11T14:39:40.408Z,26.18
2018-09-11T14:44:44.080Z,26.24
2018-09-11T14:49:47.780Z,26.34
2018-09-11T14:54:51.483Z,26.27
2018-09-11T14:59:55.199Z,26.26
2018-09-11T15:04:58.916Z,26.28
2018-09-11T15:10:02.665Z,26.24
2018-09-11T15:15:06.318Z,25.99
2018-09-11T15:20:10.047Z,26.07
2018-09-11T15:25:13.697Z,26.29
2018-09-11T15:30:25.502Z,26.15
2018-09-11T15:35:29.062Z,26.17
2018-09-11T15:40:32.660Z,26.14
2018-09-11T15:45:36.433Z,26.07
2018-09-11T15:50:40.268Z,26.00
2018-09-11T15:55:44.000Z,26.10
2018-09-11T16:00:47.597Z,26.21
2018-09-11T16:05:51.370Z,26.24
2018-09-11T16:10:55.075Z,26.10
2018-09-11T16:15:58.659Z,25.97
2018-09-11T16:21:02.380Z,25.69
2018-09-11T16:26:06.021Z,25.71
2018-09-11T16:31:09.635Z,25.73
2018-09-11T16:36:13.279Z,25.67
2018-09-11T16:41:17.194Z,25.49
2018-09-11T16:46:20.915Z,25.45
2018-09-11T16:51:24.600Z,25.43
2018-09-11T16:56:28.124Z,25.31
2018-09-11T17:01:32.581Z,25.26
2018-09-11T17:06:36.266Z,25.20
2018-09-11T17:11:39.918Z,25.08
2018-09-11T17:16:43.694Z,25.01
2018-09-11T17:21:47.379Z,24.95
2018-09-11T17:26:51.092Z,24.79
2018-09-11T17:31:54.651Z,24.65
2018-09-11T17:36:58.403Z,24.53
2018-09-11T17:42:02.014Z,24.50
2018-09-11T17:47:07.166Z,24.29
2018-09-11T17:52:10.715Z,24.25
2018-09-11T17:57:14.491Z,24.26
2018-09-11T18:02:18.539Z,24.18
2018-09-11T18:07:22.830Z,24.06
2018-09-11T18:12:26.499Z,23.92
2018-09-11T18:17:29.998Z,23.75
2018-09-11T18:22:33.617Z,23.47
2018-09-11T18:27:37.533Z,23.13
2018-09-11T18:32:41.063Z,22.89
2018-09-11T18:37:44.705Z,22.69
2018-09-11T18:42:48.343Z,22.51
2018-09-11T18:47:51.972Z,22.48
2018-09-11T18:52:55.599Z,22.44
2018-09-11T18:57:59.389Z,22.37
2018-09-11T19:03:03.559Z,22.29
2018-09-11T19:08:07.405Z,22.16
2018-09-11T19:13:11.293Z,21.94
2018-09-11T19:18:15.060Z,21.76
2018-09-11T19:23:18.607Z,21.64
2018-09-11T19:28:22.345Z,21.51
2018-09-11T19:33:25.943Z,21.38
2018-09-11T19:38:29.480Z,21.31
2018-09-11T19:43:33.053Z,21.21
2018-09-11T19:48:36.628Z,21.20
2018-09-11T19:53:40.216Z,21.10
2018-09-11T19:58:43.822Z,21.01
2018-09-11T20:03:47.683Z,20.92
2018-09-11T20:08:51.307Z,20.86
2018-09-11T20:13:54.963Z,20.81
2018-09-11T20:18:58.540Z,20.72
2018-09-11T20:24:02.392Z,20.60
2018-09-11T20:29:05.979Z,20.44
2018-09-11T20:34:09.771Z,20.34
2018-09-11T20:39:13.696Z,20.34
2018-09-11T20:44:18.835Z,20.30
2018-09-11T20:49:22.406Z,20.26
2018-09-11T20:54:25.998Z,20.23
2018-09-11T20:59:29.566Z,20.21
2018-09-11T21:04:33.184Z,20.15
2018-09-11T21:09:37.030Z,20.11
2018-09-11T21:14:40.770Z,20.08
2018-09-11T21:19:44.377Z,20.04
2018-09-11T21:24:47.997Z,20.05
2018-09-11T21:29:51.535Z,20.04
2018-09-11T21:34:55.503Z,20.02
2018-09-11T21:39:59.268Z,19.93
2018-09-11T21:45:02.834Z,19.87
2018-09-11T21:50:06.580Z,19.78
2018-09-11T21:55:11.638Z,19.68
2018-09-11T22:00:16.093Z,19.59
2018-09-11T22:05:20.020Z,19.56
2018-09-11T22:10:23.619Z,19.50
2018-09-11T22:15:27.262Z,19.42
2018-09-11T22:20:30.937Z,19.28
2018-09-11T22:25:44.944Z,19.21
2018-09-11T22:30:48.675Z,19.15
2018-09-11T22:35:52.232Z,19.41
2018-09-11T22:40:55.825Z,19.93
2018-09-11T22:45:59.698Z,20.19
2018-09-11T22:51:03.354Z,20.47
2018-09-11T22:56:07.098Z,20.58
2018-09-11T23:01:10.714Z,20.55
2018-09-11T23:06:14.387Z,20.50
2018-09-11T23:11:18.076Z,20.55
2018-09-11T23:16:21.687Z,20.49
2018-09-11T23:21:25.317Z,20.55
2018-09-11T23:26:29.137Z,20.56
2018-09-11T23:31:32.931Z,20.49
2018-09-11T23:36:36.651Z,20.44
2018-09-11T23:41:40.348Z,20.38
2018-09-11T23:46:44.110Z,20.35
2018-09-11T23:51:47.777Z,20.26
2018-09-11T23:56:51.453Z,20.26
